Time;durP1;ratioP1;P1;durP2;ratioP2;P2;SDS_P1;SDS_P2;PMS_P1;PMS_P2;Temp;Humidity;BMP_temperature;BMP_pressure;BME280_temperature;BME280_humidity;BME280_pressure;Samples;Min_cycle;Max_cycle;Signal;HPM_P1;HPM_P2
2022/08/18 00:01:12;;;;;;;6.90;6.40;;;25.70;50.20;;;;;;5033202;28;20984;-71
2022/08/18 00:03:44;;;;;;;7.93;7.23;;;25.70;50.20;;;;;;5043288;28;20549;-71
2022/08/18 00:06:28;;;;;;;7.07;6.57;;;25.70;50.20;;;;;;5017170;28;20434;-72
2022/08/18 00:08:58;;;;;;;7.33;6.73;;;25.70;50.20;;;;;;5033131;28;20899;-71
2022/08/18 00:11:30;;;;;;;7.33;6.83;;;25.70;50.20;;;;;;5041442;28;20557;-71
2022/08/18 00:14:13;;;;;;;7.27;6.77;;;25.70;50.30;;;;;;5037598;28;20474;-71
2022/08/18 00:16:52;;;;;;;7.20;6.70;;;25.70;50.20;;;;;;5036305;28;20471;-72
2022/08/18 00:19:22;;;;;;;6.80;6.30;;;25.70;50.20;;;;;;5022156;28;20902;-71
2022/08/18 00:22:12;;;;;;;7.50;6.97;;;25.70;50.20;;;;;;5060723;28;20906;-71
2022/08/18 00:24:44;;;;;;;7.00;6.50;;;25.70;50.20;;;;;;5038215;28;20473;-71
2022/08/18 00:27:20;;;;;;;7.30;6.80;;;25.70;50.20;;;;;;5031652;28;20439;-71
2022/08/18 00:29:50;;;;;;;7.63;7.00;;;25.70;50.20;;;;;;5045399;28;20995;-71
2022/08/18 00:32:22;;;;;;;7.20;6.70;;;25.70;50.30;;;;;;5038766;28;20486;-71
2022/08/18 00:34:52;;;;;;;7.33;6.73;;;25.70;50.20;;;;;;5035321;28;20507;-72
2022/08/18 00:37:21;;;;;;;7.13;6.63;;;25.70;50.30;;;;;;5029930;28;20470;-72
2022/08/18 00:39:51;;;;;;;8.00;7.40;;;25.70;50.20;;;;;;5030258;28;20803;-72
2022/08/18 00:42:22;;;;;;;7.53;6.87;;;25.70;50.20;;;;;;5041981;28;20451;-71
2022/08/18 00:45:00;;;;;;;7.13;6.60;;;25.70;50.20;;;;;;5039284;28;20561;-71
2022/08/18 00:47:29;;;;;;;7.87;7.27;;;25.70;50.20;;;;;;5030482;28;20846;-71
2022/08/18 00:50:19;;;;;;;7.67;7.17;;;25.70;50.30;;;;;;5039924;28;20458;-71
2022/08/18 00:52:52;;;;;;;7.63;7.03;;;25.70;50.30;;;;;;5041388;28;20516;-71
2022/08/18 00:55:22;;;;;;;7.07;6.57;;;25.70;50.30;;;;;;5065184;28;20926;-72
2022/08/18 00:57:55;;;;;;;7.70;7.10;;;25.70;50.30;;;;;;5053866;28;20496;-71
2022/08/18 01:00:23;;;;;;;7.17;6.57;;;25.70;50.30;;;;;;5040692;28;20933;-72
2022/08/18 01:02:56;;;;;;;7.13;6.63;;;25.60;50.20;;;;;;5035875;28;20475;-71
2022/08/18 01:05:32;;;;;;;8.17;7.47;;;25.60;50.30;;;;;;5040772;28;20446;-71
2022/08/18 01:08:01;;;;;;;7.40;6.83;;;25.60;50.20;;;;;;5039701;28;20442;-71
2022/08/18 01:10:34;;;;;;;6.97;6.47;;;25.60;51.40;;;;;;5062260;28;20427;-72
2022/08/18 01:13:03;;;;;;;7.80;7.30;;;25.60;50.20;;;;;;5029848;28;20831;-72
2022/08/18 01:15:32;;;;;;;7.70;7.10;;;25.60;50.20;;;;;;5038124;28;21087;-72
2022/08/18 01:23:45;;;;;;;7.70;7.20;;;25.60;50.20;;;;;;4982692;28;20463;-71
2022/08/18 01:26:15;;;;;;;8.53;7.83;;;25.60;50.30;;;;;;5046896;28;20453;-71
2022/08/18 01:28:48;;;;;;;8.57;7.97;;;25.60;50.30;;;;;;5031583;28;20485;-70
2022/08/18 01:31:36;;;;;;;8.73;8.00;;;25.60;50.40;;;;;;5048913;28;20474;-71
2022/08/18 01:34:06;;;;;;;8.00;7.30;;;25.60;50.30;;;;;;5044908;28;20829;-72
2022/08/18 01:36:37;;;;;;;8.23;7.43;;;25.60;50.20;;;;;;5034181;28;20454;-71
2022/08/18 01:39:08;;;;;;;8.13;7.47;;;25.60;50.30;;;;;;5067148;28;20566;-72
2022/08/18 01:41:37;;;;;;;7.30;6.80;;;25.60;50.30;;;;;;5060780;28;20457;-72
2022/08/18 01:44:07;;;;;;;7.93;7.33;;;25.60;50.20;;;;;;5069259;28;20478;-72
2022/08/18 01:46:36;;;;;;;8.40;7.70;;;25.60;50.20;;;;;;5054578;28;20941;-71
2022/08/18 01:49:06;;;;;;;7.27;6.77;;;25.60;50.20;;;;;;5063957;28;20472;-71
2022/08/18 01:51:36;;;;;;;9.20;8.40;;;25.50;50.20;;;;;;5058871;28;20453;-71
2022/08/18 01:54:12;;;;;;;8.10;7.50;;;25.60;50.20;;;;;;5053344;28;20480;-72
2022/08/18 01:56:42;;;;;;;7.80;7.30;;;25.50;50.20;;;;;;5052754;28;20859;-71
2022/08/18 01:59:13;;;;;;;8.43;7.83;;;25.50;50.30;;;;;;5059723;28;20505;-71
2022/08/18 02:01:44;;;;;;;9.10;8.37;;;25.50;50.20;;;;;;5055572;28;20454;-71
2022/08/18 02:04:23;;;;;;;8.13;7.50;;;25.50;50.20;;;;;;5063698;28;20478;-72
2022/08/18 02:07:10;;;;;;;7.80;7.20;;;25.50;50.20;;;;;;5072212;28;20433;-72
2022/08/18 02:09:42;;;;;;;8.77;8.07;;;25.50;50.20;;;;;;5063805;28;20521;-71
2022/08/18 02:12:11;;;;;;;8.83;8.03;;;25.50;50.20;;;;;;5069786;28;20476;-70
2022/08/18 02:14:40;;;;;;;8.13;7.53;;;25.50;50.20;;;;;;5055466;28;20789;-72
2022/08/18 02:17:11;;;;;;;8.60;7.97;;;25.50;50.20;;;;;;5080464;28;20436;-71
2022/08/18 02:19:43;;;;;;;8.03;7.43;;;25.50;50.20;;;;;;5054330;28;20491;-72
2022/08/18 02:22:14;;;;;;;8.33;7.73;;;25.50;50.20;;;;;;5062171;28;20469;-72
2022/08/18 02:24:44;;;;;;;9.20;8.50;;;25.50;50.20;;;;;;5055181;28;20511;-71
2022/08/18 02:27:14;;;;;;;9.10;8.40;;;25.50;50.30;;;;;;5093954;28;20533;-71
2022/08/18 02:29:43;;;;;;;8.10;7.50;;;25.50;50.20;;;;;;5055009;28;20450;-71
2022/08/18 02:32:11;;;;;;;8.27;7.60;;;25.50;50.20;;;;;;5072952;28;20445;-71
2022/08/18 02:34:41;;;;;;;8.60;8.00;;;25.50;50.30;;;;;;5053868;28;20810;-71
2022/08/18 02:37:10;;;;;;;8.97;8.03;;;25.40;50.10;;;;;;5079511;28;20968;-72
2022/08/18 02:39:44;;;;;;;9.17;8.47;;;25.40;50.10;;;;;;5062543;28;20607;-72
2022/08/18 02:42:15;;;;;;;8.90;8.10;;;25.40;50.20;;;;;;5054060;28;20989;-72
2022/08/18 02:44:44;;;;;;;8.10;7.50;;;25.40;50.20;;;;;;5058816;28;20459;-71
2022/08/18 02:47:12;;;;;;;7.83;7.23;;;25.40;50.20;;;;;;5057603;28;20433;-71
2022/08/18 02:49:40;;;;;;;8.50;7.80;;;25.40;50.20;;;;;;5066880;28;20442;-73
2022/08/18 02:52:09;;;;;;;8.03;7.43;;;25.40;50.20;;;;;;5069003;28;20500;-70
2022/08/18 02:54:38;;;;;;;8.37;7.77;;;25.40;50.20;;;;;;5054980;28;20462;-71
2022/08/18 02:57:10;;;;;;;9.33;8.63;;;25.40;50.20;;;;;;5053746;28;20449;-71
2022/08/18 02:59:39;;;;;;;9.83;9.13;;;25.40;50.20;;;;;;5055732;28;20945;-71
2022/08/18 03:02:10;;;;;;;9.77;8.97;;;25.40;50.20;;;;;;5076892;28;20449;-72
2022/08/18 03:04:39;;;;;;;9.23;8.47;;;25.40;50.20;;;;;;5050340;28;20465;-71
2022/08/18 03:07:08;;;;;;;9.53;8.67;;;25.40;50.20;;;;;;5062574;28;20433;-72
2022/08/18 03:09:38;;;;;;;9.20;8.40;;;25.40;50.20;;;;;;5056964;28;20438;-72
2022/08/18 03:12:08;;;;;;;9.13;8.43;;;25.40;50.20;;;;;;5061495;28;20523;-71
2022/08/18 03:14:38;;;;;;;9.00;8.20;;;25.40;50.30;;;;;;5051723;28;20442;-72
2022/08/18 03:17:08;;;;;;;9.50;8.70;;;25.40;50.40;;;;;;5051992;28;21015;-71
2022/08/18 03:19:37;;;;;;;9.10;8.37;;;25.30;50.30;;;;;;5048128;28;20493;-71
2022/08/18 03:22:08;;;;;;;10.30;9.40;;;25.30;50.20;;;;;;5058957;28;20458;-72
2022/08/18 03:24:57;;;;;;;9.07;8.33;;;25.40;50.30;;;;;;5072317;28;20472;-71
2022/08/18 03:27:27;;;;;;;9.90;9.10;;;25.30;50.20;;;;;;5061720;28;20603;-71
2022/08/18 03:29:56;;;;;;;9.20;8.50;;;25.40;50.40;;;;;;5069520;28;20482;-71
2022/08/18 03:32:26;;;;;;;10.00;9.10;;;25.30;50.20;;;;;;5056567;28;20461;-72
2022/08/18 03:34:54;;;;;;;10.07;9.27;;;25.30;50.20;;;;;;5053438;28;20446;-71
2022/08/18 03:37:23;;;;;;;9.60;8.90;;;25.30;50.20;;;;;;5058993;28;20515;-71
2022/08/18 03:39:51;;;;;;;9.23;8.43;;;25.30;50.30;;;;;;5076948;28;20442;-71
2022/08/18 03:42:20;;;;;;;8.40;7.80;;;25.30;50.20;;;;;;5049501;28;20458;-71
2022/08/18 03:44:50;;;;;;;8.80;8.10;;;25.30;50.20;;;;;;5055836;28;20457;-72
2022/08/18 03:47:20;;;;;;;9.53;8.83;;;25.30;50.30;;;;;;5063738;28;20490;-72
2022/08/18 03:49:48;;;;;;;8.53;7.83;;;25.30;50.20;;;;;;5050657;28;20454;-71
2022/08/18 03:52:17;;;;;;;9.53;8.83;;;25.30;50.20;;;;;;5055985;28;20989;-71
2022/08/18 03:54:47;;;;;;;8.97;8.27;;;25.30;50.30;;;;;;5047151;28;20956;-71
2022/08/18 03:57:15;;;;;;;10.03;9.23;;;25.30;50.20;;;;;;5047937;28;20435;-71
2022/08/18 03:59:44;;;;;;;10.00;9.20;;;25.30;50.20;;;;;;5048906;28;20441;-72
2022/08/18 04:02:14;;;;;;;9.10;8.40;;;25.20;50.20;;;;;;5050797;28;20442;-71
2022/08/18 04:04:42;;;;;;;10.83;9.93;;;25.20;50.20;;;;;;5049901;28;20458;-72
2022/08/18 04:07:17;;;;;;;9.07;8.27;;;25.20;50.20;;;;;;5053169;28;20449;-72
2022/08/18 04:09:46;;;;;;;8.93;8.23;;;25.20;50.20;;;;;;5051271;28;20676;-71
2022/08/18 04:12:16;;;;;;;9.90;9.07;;;25.20;50.10;;;;;;5050978;28;20466;-70
2022/08/18 04:14:47;;;;;;;8.57;7.93;;;25.20;50.20;;;;;;5043932;28;20450;-71
2022/08/18 04:17:22;;;;;;;8.87;8.07;;;25.20;50.30;;;;;;5056690;28;20442;-71
2022/08/18 04:19:51;;;;;;;9.30;8.50;;;25.20;50.20;;;;;;5046688;28;20490;-71
2022/08/18 04:22:19;;;;;;;9.07;8.27;;;25.20;50.10;;;;;;5053837;28;20463;-70
2022/08/18 04:24:49;;;;;;;8.77;7.97;;;25.20;50.10;;;;;;5062511;28;20848;-70
2022/08/18 04:27:18;;;;;;;10.17;9.27;;;25.20;50.10;;;;;;5042362;28;20447;-72
2022/08/18 04:29:47;;;;;;;10.20;9.30;;;25.20;50.10;;;;;;5042811;28;20507;-71
2022/08/18 04:32:16;;;;;;;9.70;8.90;;;25.20;50.20;;;;;;5041664;28;20462;-71
2022/08/18 04:34:46;;;;;;;10.20;9.30;;;25.20;50.20;;;;;;5057723;28;20450;-71
2022/08/18 04:37:15;;;;;;;9.90;9.10;;;25.20;50.20;;;;;;5049999;28;20442;-71
2022/08/18 04:39:44;;;;;;;9.30;8.60;;;25.10;50.10;;;;;;5076060;28;20437;-71
2022/08/18 04:42:13;;;;;;;8.53;7.87;;;25.20;50.20;;;;;;5049763;28;20483;-71
2022/08/18 04:44:41;;;;;;;9.87;8.97;;;25.10;50.20;;;;;;5050711;28;20465;-72
2022/08/18 04:47:11;;;;;;;10.60;9.60;;;25.10;50.10;;;;;;5050665;28;20445;-71
2022/08/18 04:49:40;;;;;;;9.20;8.50;;;25.10;50.10;;;;;;5047298;28;20450;-72
2022/08/18 04:55:10;;;;;;;9.10;8.40;;;25.10;50.20;;;;;;5050618;28;20748;-71
2022/08/18 04:57:41;;;;;;;9.73;8.97;;;25.10;50.20;;;;;;5049850;28;20462;-71
2022/08/18 05:00:11;;;;;;;11.67;10.63;;;25.10;50.10;;;;;;5058417;28;20449;-71
2022/08/18 05:02:40;;;;;;;9.53;8.77;;;25.10;50.20;;;;;;5068313;28;20469;-71
2022/08/18 05:05:10;;;;;;;10.30;9.50;;;25.10;50.20;;;;;;5052600;28;20458;-72
2022/08/18 05:07:44;;;;;;;10.10;9.20;;;25.10;50.20;;;;;;5051402;28;20461;-71
2022/08/18 05:10:16;;;;;;;10.50;9.63;;;25.10;50.20;;;;;;5050905;28;20794;-72
2022/08/18 05:12:47;;;;;;;10.60;9.70;;;25.10;50.20;;;;;;5039068;28;20459;-72
2022/08/18 05:15:17;;;;;;;10.47;9.57;;;25.10;50.30;;;;;;5043710;28;20438;-71
2022/08/18 05:17:46;;;;;;;10.80;9.90;;;25.10;50.30;;;;;;5069731;28;20437;-72
2022/08/18 05:20:18;;;;;;;11.37;10.33;;;25.10;50.30;;;;;;5044232;28;20454;-71
2022/08/18 05:22:49;;;;;;;10.50;9.53;;;25.10;50.30;;;;;;5053241;28;20462;-71
2022/08/18 05:25:18;;;;;;;10.10;9.20;;;25.10;50.30;;;;;;5037960;28;20845;-71
2022/08/18 05:28:06;;;;;;;11.73;10.70;;;25.10;50.30;;;;;;5071483;28;20472;-70
2022/08/18 05:30:55;;;;;;;11.30;10.20;;;25.00;50.30;;;;;;5066237;28;20793;-71
2022/08/18 05:33:28;;;;;;;10.30;9.40;;;25.10;50.30;;;;;;5053749;28;20992;-71
2022/08/18 05:36:05;;;;;;;11.13;10.03;;;25.10;50.30;;;;;;5054438;28;20438;-71
2022/08/18 05:38:54;;;;;;;11.40;9.77;;;25.00;50.20;;;;;;5054282;28;20556;-72
2022/08/18 05:41:26;;;;;;;12.17;11.00;;;25.00;50.30;;;;;;5054556;28;20823;-71
2022/08/18 05:43:57;;;;;;;10.60;9.70;;;25.00;50.30;;;;;;5052945;28;20465;-71
2022/08/18 05:46:37;;;;;;;10.30;9.50;;;25.00;50.40;;;;;;5051476;28;20966;-71
2022/08/18 05:49:05;;;;;;;11.63;10.60;;;25.00;50.40;;;;;;5066830;28;20469;-71
2022/08/18 05:51:40;;;;;;;11.60;10.47;;;25.00;50.40;;;;;;5054800;28;20463;-71
2022/08/18 05:57:05;;;;;;;11.83;10.83;;;25.00;50.30;;;;;;5065519;28;20457;-71
2022/08/18 05:59:37;;;;;;;11.90;10.60;;;25.00;50.40;;;;;;5057257;28;20821;-71
2022/08/18 06:02:13;;;;;;;12.37;11.07;;;25.00;50.50;;;;;;5053712;28;20466;-71
2022/08/18 06:04:51;;;;;;;12.07;10.87;;;25.00;50.50;;;;;;5050339;28;20490;-71
2022/08/18 06:07:34;;;;;;;12.33;11.23;;;24.90;50.40;;;;;;5053053;28;20467;-72
2022/08/18 06:10:07;;;;;;;11.43;10.40;;;25.00;50.50;;;;;;5055915;28;20986;-71
2022/08/18 06:12:38;;;;;;;12.17;10.97;;;25.00;50.50;;;;;;5053101;28;20528;-70
2022/08/18 06:15:25;;;;;;;12.70;11.50;;;25.00;50.60;;;;;;5052407;28;21036;-71
2022/08/18 06:18:10;;;;;;;11.07;10.07;;;25.00;50.50;;;;;;5078096;28;20445;-71
2022/08/18 06:20:58;;;;;;;11.87;10.80;;;24.90;50.40;;;;;;5053102;28;20810;-66
2022/08/18 06:23:35;;;;;;;11.70;10.70;;;24.90;50.40;;;;;;5046273;28;20465;-67
2022/08/18 06:26:15;;;;;;;13.07;11.77;;;24.90;50.50;;;;;;5052819;28;20914;-67
2022/08/18 06:28:56;;;;;;;12.60;11.50;;;24.90;50.50;;;;;;5051780;28;20473;-67
2022/08/18 06:31:39;;;;;;;11.50;10.60;;;24.90;50.50;;;;;;5063252;28;21020;-66
2022/08/18 06:34:17;;;;;;;11.67;10.77;;;24.90;50.50;;;;;;5050240;28;20547;-67
2022/08/18 06:36:52;;;;;;;11.70;10.50;;;24.90;50.50;;;;;;5060374;28;20445;-67
2022/08/18 06:39:29;;;;;;;11.40;10.40;;;24.90;50.60;;;;;;5044625;28;20472;-68
2022/08/18 06:41:59;;;;;;;13.23;10.77;;;24.90;50.50;;;;;;5069962;28;20996;-67
2022/08/18 06:44:33;;;;;;;13.47;12.27;;;24.90;50.50;;;;;;5037559;28;20552;-67
2022/08/18 06:47:14;;;;;;;11.80;10.70;;;24.90;50.60;;;;;;5068390;28;20470;-67
2022/08/18 06:49:48;;;;;;;11.30;10.30;;;24.90;50.60;;;;;;5051007;28;20893;-67
2022/08/18 06:52:22;;;;;;;11.40;10.40;;;24.90;50.60;;;;;;5045594;28;21012;-68
2022/08/18 06:54:54;;;;;;;12.70;11.50;;;24.90;50.70;;;;;;5052691;28;20492;-68
2022/08/18 06:57:28;;;;;;;11.43;10.33;;;24.90;50.60;;;;;;5050343;28;20439;-66
2022/08/18 07:00:04;;;;;;;12.93;11.73;;;24.90;50.70;;;;;;5051841;28;20445;-67
2022/08/18 07:02:45;;;;;;;12.97;11.77;;;24.90;50.60;;;;;;5056250;28;20463;-67
2022/08/18 07:05:23;;;;;;;12.00;10.90;;;24.80;50.50;;;;;;5059208;28;20446;-67
2022/08/18 07:08:14;;;;;;;11.67;10.50;;;24.80;50.50;;;;;;5050770;28;20484;-67
2022/08/18 07:10:48;;;;;;;13.50;12.30;;;24.90;50.50;;;;;;5049186;28;20451;-67
2022/08/18 07:13:24;;;;;;;10.93;9.77;;;24.90;50.80;;;;;;5049402;28;20480;-68
2022/08/18 07:15:54;;;;;;;12.53;11.30;;;24.80;50.60;;;;;;5051567;28;20856;-67
2022/08/18 07:18:26;;;;;;;11.87;10.87;;;24.80;50.70;;;;;;5050322;28;20474;-67
2022/08/18 07:20:58;;;;;;;11.63;10.53;;;24.80;50.60;;;;;;5050488;28;20448;-68
2022/08/18 07:23:32;;;;;;;20.60;18.50;;;24.80;50.60;;;;;;5054677;28;20475;-68
2022/08/18 07:26:08;;;;;;;30.20;26.25;;;24.80;51.40;;;;;;5067295;28;20430;-68
2022/08/18 07:28:40;;;;;;;24.90;19.07;;;24.80;52.70;;;;;;5050301;28;20625;-68
2022/08/18 07:31:30;;;;;;;22.57;18.70;;;24.70;52.50;;;;;;5051312;28;21012;-68
2022/08/18 07:34:03;;;;;;;17.47;15.63;;;24.70;52.60;;;;;;5049226;28;20473;-68
2022/08/18 07:36:40;;;;;;;19.67;16.50;;;24.70;52.30;;;;;;5045267;28;20999;-68
2022/08/18 07:39:15;;;;;;;17.87;15.97;;;24.70;51.90;;;;;;5050004;28;20468;-68
2022/08/18 07:41:49;;;;;;;19.57;16.40;;;24.70;51.80;;;;;;5050254;28;20888;-68
2022/08/18 07:44:25;;;;;;;15.57;13.97;;;24.70;51.80;;;;;;5057554;28;20773;-68
2022/08/18 07:46:59;;;;;;;15.57;13.33;;;24.70;51.70;;;;;;5067873;28;20953;-68
2022/08/18 07:49:33;;;;;;;16.33;14.10;;;24.70;51.60;;;;;;5048812;28;20469;-67
2022/08/18 07:52:06;;;;;;;14.83;13.33;;;24.70;51.70;;;;;;5053977;28;20461;-68
2022/08/18 07:55:02;;;;;;;18.85;16.90;;;24.70;51.60;;;;;;5056111;28;20929;-70
2022/08/18 07:57:43;;;;;;;21.70;19.27;;;24.70;51.30;;;;;;5049609;28;20302;-69
2022/08/18 08:00:21;;;;;;;24.47;20.90;;;24.70;51.50;;;;;;5067550;28;20442;-68
2022/08/18 08:03:24;;;;;;;22.97;20.67;;;24.70;51.80;;;;;;5064174;28;20482;-68
2022/08/18 08:06:00;;;;;;;24.23;20.73;;;24.60;52.30;;;;;;5046555;28;20442;-72
2022/08/18 08:08:34;;;;;;;22.60;20.20;;;24.60;52.40;;;;;;5041453;28;20993;-71
2022/08/18 08:11:16;;;;;;;26.97;21.03;;;24.50;52.50;;;;;;5051971;28;20992;-73
2022/08/18 08:13:57;;;;;;;24.20;18.40;;;24.60;52.90;;;;;;5052321;28;20557;-71
2022/08/18 08:16:36;;;;;;;25.70;22.30;;;24.50;52.90;;;;;;5053445;28;20779;-71
2022/08/18 08:19:21;;;;;;;23.00;18.17;;;24.50;53.80;;;;;;5048747;28;21000;-71
2022/08/18 08:22:16;;;;;;;19.90;17.80;;;24.50;53.50;;;;;;5041545;28;20493;-71
2022/08/18 08:24:56;;;;;;;19.43;17.43;;;24.50;53.50;;;;;;5058867;28;20430;-72
2022/08/18 08:27:35;;;;;;;22.40;18.57;;;24.50;53.50;;;;;;5050464;28;20494;-71
2022/08/18 08:30:08;;;;;;;29.80;23.93;;;24.50;53.70;;;;;;5049551;28;20473;-70
2022/08/18 08:32:47;;;;;;;27.15;21.92;;;24.50;54.70;;;;;;5056941;28;20434;-71
2022/08/18 08:35:21;;;;;;;22.70;18.67;;;24.50;54.60;;;;;;5041043;28;20736;-71
2022/08/18 08:38:14;;;;;;;22.70;18.83;;;24.50;54.40;;;;;;5048918;28;20516;-72
2022/08/18 08:41:09;;;;;;;26.07;19.47;;;24.50;54.50;;;;;;5050167;28;20438;-72
2022/08/18 08:43:42;;;;;;;21.60;19.37;;;24.50;55.00;;;;;;5059247;28;20481;-72
2022/08/18 08:46:13;;;;;;;19.33;17.27;;;24.40;55.10;;;;;;5052373;28;20856;-72
2022/08/18 08:48:47;;;;;;;19.10;17.20;;;24.40;54.80;;;;;;5049194;28;20477;-72
2022/08/18 08:51:33;;;;;;;23.67;20.63;;;24.40;54.80;;;;;;5067980;28;20441;-72
2022/08/18 08:54:09;;;;;;;28.30;25.02;;;24.40;57.00;;;;;;5049386;28;20530;-71
2022/08/18 08:56:46;;;;;;;22.33;19.93;;;24.40;56.90;;;;;;5050333;28;20215;-72
2022/08/18 08:59:17;;;;;;;22.23;19.70;;;24.30;56.70;;;;;;5065947;28;20485;-73
2022/08/18 09:01:54;;;;;;;23.07;20.57;;;24.30;56.40;;;;;;5060563;28;20461;-73
2022/08/18 09:04:34;;;;;;;19.83;17.50;;;24.30;56.60;;;;;;5040861;28;20473;-72
2022/08/18 09:07:16;;;;;;;21.17;18.83;;;24.30;56.10;;;;;;5051725;28;20798;-71
2022/08/18 09:10:07;;;;;;;21.67;19.37;;;24.30;56.10;;;;;;5051088;28;20461;-73
2022/08/18 09:12:49;;;;;;;20.77;18.60;;;24.30;56.40;;;;;;5062018;28;20475;-72
2022/08/18 09:15:54;;;;;;;20.13;16.90;;;24.30;55.80;;;;;;5042488;28;20438;-73
2022/08/18 09:18:55;;;;;;;17.30;15.50;;;24.30;55.90;;;;;;4996297;28;20473;-73
2022/08/18 09:21:43;;;;;;;19.70;16.50;;;24.30;55.80;;;;;;5062472;28;20439;-72
2022/08/18 09:24:22;;;;;;;16.70;15.00;;;24.30;55.80;;;;;;5052799;28;20481;-72
2022/08/18 09:26:53;;;;;;;15.67;14.07;;;24.30;55.90;;;;;;5052044;28;20435;-73
2022/08/18 09:29:26;;;;;;;15.77;14.17;;;24.30;55.70;;;;;;5042206;28;20477;-71
2022/08/18 09:32:31;;;;;;;20.83;18.53;;;24.20;55.70;;;;;;5049714;28;20476;-72
2022/08/18 09:35:13;;;;;;;19.37;17.37;;;24.20;56.20;;;;;;5045244;28;20984;-72
2022/08/18 09:41:30;;;;;;;19.53;17.53;;;24.30;56.10;;;;;;5067736;28;20462;-73
2022/08/18 09:43:36;;;;;;;17.87;15.97;;;24.20;55.70;;;;;;5040941;28;20505;-73
2022/08/18 09:46:07;;;;;;;16.30;14.57;;;24.20;55.90;;;;;;5050435;28;20458;-72
2022/08/18 09:48:46;;;;;;;16.67;15.07;;;24.20;56.20;;;;;;5049900;28;20492;-69
2022/08/18 09:51:41;;;;;;;17.53;15.73;;;24.20;55.90;;;;;;5066388;28;20503;-71
2022/08/18 09:54:17;;;;;;;18.97;16.97;;;24.20;55.90;;;;;;5076573;28;20557;-71
2022/08/18 09:57:17;;;;;;;17.80;16.10;;;24.20;56.20;;;;;;5046521;28;20762;-72
2022/08/18 10:00:26;;;;;;;17.37;15.63;;;24.20;56.10;;;;;;5050072;28;20465;-72
2022/08/18 10:03:12;;;;;;;18.23;16.30;;;24.20;56.30;;;;;;5055193;28;20541;-72
2022/08/18 10:06:07;;;;;;;18.97;17.07;;;24.20;56.40;;;;;;5048874;28;20521;-73
2022/08/18 10:09:22;;;;;;;16.23;14.73;;;24.20;56.30;;;;;;5049492;28;20477;-73
2022/08/18 10:12:25;;;;;;;18.60;16.80;;;24.20;56.20;;;;;;5048909;28;20557;-73
2022/08/18 10:15:18;;;;;;;17.27;15.47;;;24.20;56.30;;;;;;5053635;28;20458;-72
2022/08/18 10:18:24;;;;;;;15.93;14.43;;;24.20;56.00;;;;;;5052246;28;20434;-72
2022/08/18 10:21:00;;;;;;;15.33;13.80;;;24.10;56.30;;;;;;5047115;28;20465;-73
2022/08/18 10:23:50;;;;;;;19.77;17.80;;;24.10;56.40;;;;;;5069134;28;20477;-73
2022/08/18 10:27:12;;;;;;;19.23;17.30;;;24.20;56.40;;;;;;5046803;28;20532;-71
2022/08/18 10:29:51;;;;;;;16.37;14.70;;;24.10;56.20;;;;;;5049753;28;20469;-73
2022/08/18 10:32:42;;;;;;;19.00;17.10;;;24.10;56.20;;;;;;5057243;28;20466;-72
2022/08/18 10:36:04;;;;;;;17.40;13.93;;;24.10;56.50;;;;;;5045630;28;20603;-73
2022/08/18 10:38:43;;;;;;;18.87;17.00;;;24.10;56.60;;;;;;5068067;28;20996;-70
2022/08/18 10:41:28;;;;;;;15.60;14.10;;;24.10;56.50;;;;;;5062110;28;20434;-68
2022/08/18 10:44:02;;;;;;;18.13;16.23;;;24.10;56.70;;;;;;5047246;28;21050;-69
2022/08/18 10:46:52;;;;;;;18.73;14.47;;;24.10;56.50;;;;;;5051882;28;21309;-70
2022/08/18 10:49:25;;;;;;;16.40;14.67;;;24.10;56.70;;;;;;5057843;28;20486;-68
2022/08/18 10:52:18;;;;;;;16.40;14.80;;;24.10;56.40;;;;;;5061438;28;20437;-70
2022/08/18 10:55:24;;;;;;;15.83;14.17;;;24.10;56.70;;;;;;5061542;28;20492;-68
2022/08/18 10:58:40;;;;;;;15.97;14.40;;;24.10;56.40;;;;;;5025691;28;20549;-69
2022/08/18 11:01:38;;;;;;;15.80;14.10;;;24.10;56.60;;;;;;5051834;28;20438;-71
2022/08/18 11:04:21;;;;;;;17.20;15.40;;;24.10;56.40;;;;;;5050735;28;20462;-70
2022/08/18 11:07:08;;;;;;;16.87;14.77;;;24.10;56.60;;;;;;5070644;28;20520;-71
2022/08/18 11:09:39;;;;;;;16.47;14.77;;;24.10;56.60;;;;;;5051182;28;20472;-69
2022/08/18 11:13:00;;;;;;;17.30;15.50;;;24.10;56.70;;;;;;5069038;28;20493;-71
2022/08/18 11:15:49;;;;;;;19.07;17.17;;;24.10;58.10;;;;;;5051874;28;20489;-70
2022/08/18 11:18:36;;;;;;;17.90;16.07;;;24.20;57.40;;;;;;5050273;28;20505;-70
2022/08/18 11:21:25;;;;;;;17.20;15.40;;;24.10;57.00;;;;;;5052890;28;20988;-69
2022/08/18 11:24:10;;;;;;;17.37;15.67;;;24.10;57.00;;;;;;5048350;28;20996;-70
2022/08/18 11:26:43;;;;;;;15.70;14.30;;;24.10;57.00;;;;;;5061514;28;20516;-69
2022/08/18 11:29:24;;;;;;;14.87;13.37;;;24.10;56.80;;;;;;5042855;28;20490;-69
2022/08/18 11:31:57;;;;;;;13.70;11.60;;;24.20;56.90;;;;;;5063834;28;20474;-70
2022/08/18 11:34:36;;;;;;;14.90;13.50;;;24.20;57.00;;;;;;5048725;28;20503;-70
2022/08/18 11:37:08;;;;;;;14.63;13.23;;;24.20;57.00;;;;;;5069177;28;20446;-68
2022/08/18 11:39:48;;;;;;;13.77;12.43;;;24.20;57.00;;;;;;5057040;28;20859;-70
2022/08/18 11:42:18;;;;;;;14.07;12.67;;;24.10;56.90;;;;;;5063094;28;20523;-68
2022/08/18 11:44:54;;;;;;;14.00;12.73;;;24.10;56.80;;;;;;5050109;28;20579;-69
2022/08/18 11:47:23;;;;;;;14.20;13.00;;;24.20;57.00;;;;;;5051300;28;20438;-68
2022/08/18 11:50:07;;;;;;;15.33;13.80;;;24.10;57.00;;;;;;5067318;28;20889;-70
2022/08/18 11:52:48;;;;;;;13.20;11.57;;;24.10;56.90;;;;;;5048425;28;20837;-72
2022/08/18 11:55:28;;;;;;;13.73;12.30;;;24.20;56.90;;;;;;5055704;28;20435;-70
2022/08/18 11:57:58;;;;;;;16.93;13.70;;;24.20;56.80;;;;;;5054442;28;20449;-73
2022/08/18 12:00:53;;;;;;;12.20;11.10;;;24.20;57.10;;;;;;5047508;28;20845;-72
2022/08/18 12:03:30;;;;;;;12.47;11.17;;;24.20;56.80;;;;;;5042623;28;20829;-73
2022/08/18 12:06:11;;;;;;;12.80;11.60;;;24.20;56.70;;;;;;5061622;28;20446;-71
2022/08/18 12:08:57;;;;;;;12.27;11.17;;;24.20;57.00;;;;;;5067759;28;20509;-69
2022/08/18 12:11:29;;;;;;;12.47;11.37;;;24.20;56.80;;;;;;5050991;28;20805;-70
2022/08/18 12:14:05;;;;;;;12.50;11.30;;;24.20;56.70;;;;;;5068257;28;20906;-69
2022/08/18 12:16:54;;;;;;;11.00;10.10;;;24.20;56.50;;;;;;5049700;28;20442;-70
2022/08/18 12:19:26;;;;;;;10.90;10.00;;;24.20;56.50;;;;;;5040454;28;20473;-69
2022/08/18 12:21:59;;;;;;;14.90;13.43;;;24.20;56.60;;;;;;5048065;28;20466;-69
2022/08/18 12:24:32;;;;;;;11.97;10.90;;;24.20;56.70;;;;;;5066474;28;20470;-70
2022/08/18 12:27:07;;;;;;;13.10;11.80;;;24.20;56.50;;;;;;5060098;28;20465;-70
2022/08/18 12:29:49;;;;;;;13.13;11.93;;;24.20;56.70;;;;;;5042180;28;20470;-70
2022/08/18 12:32:18;;;;;;;11.67;10.63;;;24.20;56.40;;;;;;5046170;28;20460;-69
2022/08/18 12:35:10;;;;;;;10.00;9.10;;;24.20;56.40;;;;;;5049760;28;20949;-70
2022/08/18 12:37:44;;;;;;;12.23;11.00;;;24.20;56.50;;;;;;5042504;28;20478;-70
2022/08/18 12:40:33;;;;;;;13.07;11.77;;;24.10;56.50;;;;;;5044721;28;20797;-70
2022/08/18 12:43:02;;;;;;;12.77;10.50;;;24.10;56.50;;;;;;5058311;28;20466;-70
2022/08/18 12:45:33;;;;;;;11.73;10.73;;;24.10;56.70;;;;;;5050674;28;20429;-70
2022/08/18 12:48:05;;;;;;;11.80;10.80;;;24.10;56.50;;;;;;5057936;28;20911;-70
2022/08/18 12:50:34;;;;;;;12.00;11.00;;;24.10;56.40;;;;;;5066628;28;20541;-73
2022/08/18 12:53:25;;;;;;;10.73;9.83;;;24.10;56.40;;;;;;5045364;28;20864;-73
2022/08/18 12:56:21;;;;;;;12.43;11.40;;;24.10;56.30;;;;;;5050299;28;20438;-73
2022/08/18 12:58:50;;;;;;;14.57;13.07;;;24.10;56.70;;;;;;5048036;28;20564;-73
2022/08/18 13:01:19;;;;;;;13.70;12.50;;;24.10;56.70;;;;;;5059479;28;20427;-73
2022/08/18 13:03:52;;;;;;;11.27;10.00;;;24.10;56.60;;;;;;5048248;28;20827;-72
2022/08/18 13:06:45;;;;;;;12.17;11.10;;;24.10;56.40;;;;;;5045116;28;20466;-72
2022/08/18 13:09:31;;;;;;;12.03;10.93;;;24.10;56.60;;;;;;5066142;28;21009;-73
2022/08/18 13:12:17;;;;;;;9.90;9.10;;;24.10;56.40;;;;;;5074982;28;20891;-72
2022/08/18 13:14:48;;;;;;;10.77;9.80;;;24.10;56.20;;;;;;5065551;28;20917;-73
2022/08/18 13:17:19;;;;;;;12.60;11.50;;;24.20;56.20;;;;;;5041413;28;20445;-72
2022/08/18 13:20:03;;;;;;;11.47;10.30;;;24.10;56.40;;;;;;5062526;28;20446;-72
2022/08/18 13:22:31;;;;;;;11.07;10.07;;;24.20;56.30;;;;;;5049394;28;20449;-73
2022/08/18 13:25:04;;;;;;;11.83;10.73;;;24.20;56.40;;;;;;5054739;28;20443;-71
2022/08/18 13:27:33;;;;;;;11.00;10.10;;;24.20;56.60;;;;;;5049701;28;20434;-72
2022/08/18 13:30:09;;;;;;;11.87;10.93;;;24.20;56.60;;;;;;5045938;28;20554;-71
2022/08/18 13:32:58;;;;;;;10.90;10.00;;;24.20;56.60;;;;;;5065545;28;20464;-73
2022/08/18 13:35:33;;;;;;;9.57;8.77;;;24.20;56.50;;;;;;5048365;28;20481;-71
2022/08/18 13:38:12;;;;;;;12.23;11.23;;;24.20;56.60;;;;;;5048610;28;20480;-72
2022/08/18 13:40:50;;;;;;;10.20;9.20;;;24.20;56.70;;;;;;5033196;28;20606;-72